Time;durP1;ratioP1;P1;durP2;ratioP2;P2;SDS_P1;SDS_P2;PMS_P1;PMS_P2;Temp;Humidity;BMP_temperature;BMP_pressure;BME280_temperature;BME280_humidity;BME280_pressure;Samples;Min_cycle;Max_cycle;Signal;HPM_P1;HPM_P2
2022/04/08 00:01:23;;;;;;;0.00;0.00;;;;;;;;;;5081359;28;20038;-73
2022/04/08 00:03:49;;;;;;;0.00;0.00;;;;;;;;;;5096992;28;20032;-73
2022/04/08 00:06:16;;;;;;;0.90;0.00;;;;;;;;;;5097453;28;20016;-73
2022/04/08 00:08:44;;;;;;;0.00;0.00;;;;;;;;;;5096442;28;20092;-72
2022/04/08 00:11:10;;;;;;;0.00;0.00;;;;;;;;;;5090220;28;20051;-75
2022/04/08 00:13:36;;;;;;;0.00;0.00;;;;;;;;;;5099444;28;20008;-74
2022/04/08 00:16:02;;;;;;;0.00;0.00;;;;;;;;;;5098527;28;20043;-75
2022/04/08 00:18:29;;;;;;;0.00;0.00;;;;;;;;;;5096058;28;20036;-74
2022/04/08 00:20:55;;;;;;;0.53;0.00;;;;;;;;;;5082074;28;20037;-73
2022/04/08 00:23:22;;;;;;;0.00;0.00;;;;;;;;;;5078543;28;20242;-74
2022/04/08 00:25:48;;;;;;;0.00;0.00;;;;;;;;;;5087929;28;20122;-74
2022/04/08 00:28:14;;;;;;;0.00;0.00;;;;;;;;;;5083538;28;20059;-74
2022/04/08 00:30:40;;;;;;;0.00;0.00;;;;;;;;;;5094062;28;20100;-73
2022/04/08 00:33:06;;;;;;;1.88;0.08;;;;;;;;;;5096549;28;20016;-74
2022/04/08 00:35:33;;;;;;;0.00;0.00;;;;;;;;;;5096868;28;20024;-74
2022/04/08 00:37:59;;;;;;;0.00;0.00;;;;;;;;;;5098386;28;20047;-75
2022/04/08 00:40:25;;;;;;;0.00;0.00;;;;;;;;;;5085412;28;20317;-76
2022/04/08 00:42:51;;;;;;;0.00;0.00;;;;;;;;;;5084608;28;20163;-75
2022/04/08 00:45:17;;;;;;;0.00;0.00;;;;;;;;;;5084154;28;20043;-76
2022/04/08 00:47:44;;;;;;;0.00;0.00;;;;;;;;;;5098020;28;20080;-72
2022/04/08 00:50:11;;;;;;;0.00;0.00;;;;;;;;;;5092427;28;20012;-76
2022/04/08 00:52:38;;;;;;;0.00;0.00;;;;;;;;;;5081863;28;20085;-77
2022/04/08 00:55:04;;;;;;;0.00;0.00;;;;;;;;;;5083514;28;20027;-77
2022/04/08 00:57:31;;;;;;;0.00;0.00;;;;;;;;;;5097320;28;20020;-78
2022/04/08 00:59:58;;;;;;;0.00;0.00;;;;;;;;;;5093521;28;20027;-78
2022/04/08 01:02:25;;;;;;;0.00;0.00;;;;;;;;;;5084101;28;20203;-73
2022/04/08 01:04:51;;;;;;;0.00;0.00;;;;;;;;;;5094803;28;20208;-73
2022/04/08 01:07:17;;;;;;;0.00;0.00;;;;;;;;;;5082431;28;20013;-72
2022/04/08 01:09:43;;;;;;;0.00;0.00;;;;;;;;;;5081944;28;20009;-71
2022/04/08 01:12:09;;;;;;;0.00;0.00;;;;;;;;;;5081572;28;20012;-71
2022/04/08 01:14:38;;;;;;;0.00;0.00;;;;;;;;;;5089280;28;20012;-71
2022/04/08 01:17:04;;;;;;;0.00;0.00;;;;;;;;;;5099663;28;20118;-71
2022/04/08 01:19:31;;;;;;;0.00;0.00;;;;;;;;;;5100697;28;20027;-73
2022/04/08 01:21:57;;;;;;;0.00;0.00;;;;;;;;;;5101091;28;20020;-73
2022/04/08 01:24:24;;;;;;;0.00;0.00;;;;;;;;;;5100003;28;20012;-73
2022/04/08 01:26:52;;;;;;;0.00;0.00;;;;;;;;;;5079666;28;20039;-74
2022/04/08 01:29:18;;;;;;;0.00;0.00;;;;;;;;;;5082714;28;20082;-73
2022/04/08 01:31:45;;;;;;;0.00;0.00;;;;;;;;;;5080594;28;20264;-73
2022/04/08 01:34:14;;;;;;;0.00;0.00;;;;;;;;;;5081946;28;20027;-73
2022/04/08 01:36:40;;;;;;;0.00;0.00;;;;;;;;;;5101011;28;20124;-73
2022/04/08 01:39:07;;;;;;;0.00;0.00;;;;;;;;;;5099701;28;20074;-72
2022/04/08 01:41:33;;;;;;;0.00;0.00;;;;;;;;;;5100718;28;20110;-73
2022/04/08 01:43:59;;;;;;;0.00;0.00;;;;;;;;;;5099618;28;20030;-73
2022/04/08 01:46:25;;;;;;;0.00;0.00;;;;;;;;;;5083553;28;20048;-73
2022/04/08 01:48:55;;;;;;;0.00;0.00;;;;;;;;;;5097551;28;20016;-73
2022/04/08 01:51:24;;;;;;;0.00;0.00;;;;;;;;;;5101865;28;20080;-74
2022/04/08 01:53:51;;;;;;;0.00;0.00;;;;;;;;;;5093815;28;20028;-74
2022/04/08 01:56:17;;;;;;;0.05;0.05;;;;;;;;;;5093542;28;20020;-72
2022/04/08 01:58:43;;;;;;;0.00;0.00;;;;;;;;;;5091223;28;20027;-72
2022/04/08 02:01:09;;;;;;;0.00;0.00;;;;;;;;;;5090426;28;20097;-72
2022/04/08 02:03:35;;;;;;;0.00;0.00;;;;;;;;;;5084327;28;20059;-72
2022/04/08 02:06:01;;;;;;;0.00;0.00;;;;;;;;;;5088155;28;20084;-72
2022/04/08 02:08:28;;;;;;;0.00;0.00;;;;;;;;;;5090389;28;20107;-72
2022/04/08 02:10:54;;;;;;;0.32;0.00;;;;;;;;;;5087829;28;20024;-72
2022/04/08 02:13:20;;;;;;;0.30;0.00;;;;;;;;;;5090027;28;20020;-72
2022/04/08 02:15:47;;;;;;;0.00;0.00;;;;;;;;;;5087894;28;20072;-71
2022/04/08 02:18:14;;;;;;;0.00;0.00;;;;;;;;;;5090514;28;20055;-71
2022/04/08 02:20:41;;;;;;;0.00;0.00;;;;;;;;;;5087524;28;20560;-71
2022/04/08 02:23:07;;;;;;;0.00;0.00;;;;;;;;;;5088245;28;20195;-71
2022/04/08 02:25:33;;;;;;;0.00;0.00;;;;;;;;;;5091177;28;20120;-72
2022/04/08 02:28:00;;;;;;;0.00;0.00;;;;;;;;;;5088833;28;20035;-71
2022/04/08 02:30:26;;;;;;;0.00;0.00;;;;;;;;;;5089028;28;20015;-71
2022/04/08 02:32:52;;;;;;;0.00;0.00;;;;;;;;;;5079959;28;20016;-72
2022/04/08 02:35:19;;;;;;;0.00;0.00;;;;;;;;;;5090999;28;20149;-72
2022/04/08 02:37:45;;;;;;;0.00;0.00;;;;;;;;;;5088242;28;20030;-72
2022/04/08 02:40:11;;;;;;;1.98;0.00;;;;;;;;;;5087253;28;20110;-72
2022/04/08 02:42:37;;;;;;;0.00;0.00;;;;;;;;;;5089837;28;20096;-72
2022/04/08 02:45:03;;;;;;;0.00;0.00;;;;;;;;;;5087784;28;20046;-72
2022/04/08 02:47:30;;;;;;;0.00;0.00;;;;;;;;;;5089079;28;20184;-71
2022/04/08 02:49:56;;;;;;;0.00;0.00;;;;;;;;;;5088315;28;20042;-73
2022/04/08 02:52:22;;;;;;;0.00;0.00;;;;;;;;;;5090507;28;20069;-72
2022/04/08 02:54:48;;;;;;;0.00;0.00;;;;;;;;;;5090507;28;20024;-72
2022/04/08 02:57:14;;;;;;;0.00;0.00;;;;;;;;;;5088573;28;20023;-71
2022/04/08 02:59:40;;;;;;;0.00;0.00;;;;;;;;;;5090999;28;20043;-72
2022/04/08 03:02:06;;;;;;;0.00;0.00;;;;;;;;;;5090819;28;20020;-71
2022/04/08 03:04:32;;;;;;;0.00;0.00;;;;;;;;;;5089908;28;20262;-71
2022/04/08 03:07:01;;;;;;;0.00;0.00;;;;;;;;;;5090073;28;20377;-71
2022/04/08 03:09:26;;;;;;;;;;;;;;;;;;5089671;28;20016;-71
2022/04/08 03:11:53;;;;;;;0.00;0.00;;;;;;;;;;5091709;28;19907;-72
2022/04/08 03:14:19;;;;;;;0.00;0.00;;;;;;;;;;5097912;28;20068;-72
2022/04/08 03:16:45;;;;;;;0.00;0.00;;;;;;;;;;5099418;28;20164;-72
2022/04/08 03:19:11;;;;;;;0.00;0.00;;;;;;;;;;5097197;28;20058;-72
2022/04/08 03:21:37;;;;;;;0.13;0.00;;;;;;;;;;5099259;28;20084;-72
2022/04/08 03:24:04;;;;;;;0.00;0.00;;;;;;;;;;5094765;28;20054;-72
2022/04/08 03:26:30;;;;;;;0.28;0.00;;;;;;;;;;5098446;28;20026;-71
2022/04/08 03:28:56;;;;;;;0.08;0.08;;;;;;;;;;5099023;28;20061;-71
2022/04/08 03:31:23;;;;;;;0.00;0.00;;;;;;;;;;5096933;28;20091;-71
2022/04/08 03:33:49;;;;;;;0.13;0.13;;;;;;;;;;5098138;28;20012;-72
2022/04/08 03:36:15;;;;;;;0.00;0.00;;;;;;;;;;5097994;28;20012;-71
2022/04/08 03:38:41;;;;;;;0.00;0.00;;;;;;;;;;5098294;28;20103;-72
2022/04/08 03:41:07;;;;;;;0.00;0.00;;;;;;;;;;5090225;28;20027;-72
2022/04/08 03:43:34;;;;;;;0.00;0.00;;;;;;;;;;5077986;28;20123;-72
2022/04/08 03:46:00;;;;;;;0.00;0.00;;;;;;;;;;5078789;28;20012;-72
2022/04/08 03:48:26;;;;;;;0.00;0.00;;;;;;;;;;5079406;28;20107;-73
2022/04/08 03:50:52;;;;;;;0.00;0.00;;;;;;;;;;5096757;28;20016;-72
2022/04/08 03:53:19;;;;;;;0.00;0.00;;;;;;;;;;5079022;28;20260;-72
2022/04/08 03:55:46;;;;;;;0.00;0.00;;;;;;;;;;5081111;28;20036;-72
2022/04/08 03:58:12;;;;;;;0.00;0.00;;;;;;;;;;5083677;28;20070;-72
2022/04/08 04:00:39;;;;;;;0.10;0.10;;;;;;;;;;5082737;28;20012;-73
2022/04/08 04:03:05;;;;;;;0.00;0.00;;;;;;;;;;5090976;28;20047;-72
2022/04/08 04:05:34;;;;;;;0.00;0.00;;;;;;;;;;5081024;28;20288;-71
2022/04/08 04:08:00;;;;;;;0.00;0.00;;;;;;;;;;5091514;28;20019;-71
2022/04/08 04:10:26;;;;;;;0.00;0.00;;;;;;;;;;5088623;28;20027;-72
2022/04/08 04:12:53;;;;;;;0.00;0.00;;;;;;;;;;5089750;28;20079;-72
2022/04/08 04:15:20;;;;;;;0.00;0.00;;;;;;;;;;5089425;28;20004;-72
2022/04/08 04:17:46;;;;;;;0.00;0.00;;;;;;;;;;5088501;28;20063;-72
2022/04/08 04:20:12;;;;;;;0.43;0.10;;;;;;;;;;5088951;28;20020;-71
2022/04/08 04:22:39;;;;;;;0.00;0.00;;;;;;;;;;5087988;28;20066;-71
2022/04/08 04:25:05;;;;;;;0.30;0.10;;;;;;;;;;5087566;28;20020;-72
2022/04/08 04:27:31;;;;;;;0.00;0.00;;;;;;;;;;5087987;28;20035;-72
2022/04/08 04:29:57;;;;;;;0.00;0.00;;;;;;;;;;5088140;28;20244;-72
2022/04/08 04:32:23;;;;;;;0.17;0.17;;;;;;;;;;5089158;28;20027;-72
2022/04/08 04:34:49;;;;;;;0.00;0.00;;;;;;;;;;5089734;28;20042;-72
2022/04/08 04:37:15;;;;;;;0.17;0.00;;;;;;;;;;5091147;28;20034;-71
2022/04/08 04:39:41;;;;;;;0.00;0.00;;;;;;;;;;5090204;28;20297;-74
2022/04/08 04:42:08;;;;;;;0.00;0.00;;;;;;;;;;5090999;28;20085;-75
2022/04/08 04:44:34;;;;;;;0.30;0.10;;;;;;;;;;5090109;28;20047;-74
2022/04/08 04:47:01;;;;;;;0.00;0.00;;;;;;;;;;5091080;28;20149;-74
2022/04/08 04:49:27;;;;;;;0.00;0.00;;;;;;;;;;5093169;28;20019;-74
2022/04/08 04:51:54;;;;;;;0.00;0.00;;;;;;;;;;5090315;28;20104;-74
2022/04/08 04:54:20;;;;;;;0.00;0.00;;;;;;;;;;5091809;28;20058;-73
2022/04/08 04:56:46;;;;;;;0.00;0.00;;;;;;;;;;5092132;28;20092;-73
2022/04/08 04:59:12;;;;;;;0.00;0.00;;;;;;;;;;5090932;28;20032;-73
2022/04/08 05:01:38;;;;;;;0.00;0.00;;;;;;;;;;5084726;28;20036;-73
2022/04/08 05:04:05;;;;;;;0.00;0.00;;;;;;;;;;5092710;28;20081;-75
2022/04/08 05:06:34;;;;;;;0.00;0.00;;;;;;;;;;5091800;28;20107;-72
2022/04/08 05:09:00;;;;;;;0.00;0.00;;;;;;;;;;5090116;28;20048;-72
2022/04/08 05:11:26;;;;;;;0.52;0.00;;;;;;;;;;5089798;28;20016;-70
2022/04/08 05:13:52;;;;;;;0.00;0.00;;;;;;;;;;5089823;28;20076;-72
2022/04/08 05:16:18;;;;;;;0.00;0.00;;;;;;;;;;5093096;28;20016;-70
2022/04/08 05:18:45;;;;;;;0.00;0.00;;;;;;;;;;5089872;28;20127;-72
2022/04/08 05:21:16;;;;;;;0.00;0.00;;;;;;;;;;5093758;28;20054;-71
2022/04/08 05:23:43;;;;;;;0.00;0.00;;;;;;;;;;5098169;28;20013;-70
2022/04/08 05:26:09;;;;;;;0.00;0.00;;;;;;;;;;5100792;22;20084;-74
2022/04/08 05:28:35;;;;;;;0.00;0.00;;;;;;;;;;5037241;28;20240;-77
2022/04/08 05:31:01;;;;;;;0.00;0.00;;;;;;;;;;5043283;28;20044;-77
2022/04/08 05:33:27;;;;;;;0.00;0.00;;;;;;;;;;5035504;28;20290;-76
2022/04/08 05:35:53;;;;;;;0.00;0.00;;;;;;;;;;5031440;28;20032;-83
2022/04/08 05:38:19;;;;;;;0.15;0.00;;;;;;;;;;5033868;28;20021;-77
2022/04/08 05:40:45;;;;;;;0.00;0.00;;;;;;;;;;5033889;28;20021;-78
2022/04/08 05:43:11;;;;;;;0.00;0.00;;;;;;;;;;5032860;28;20092;-77
2022/04/08 05:45:37;;;;;;;0.00;0.00;;;;;;;;;;5038730;28;20076;-75
2022/04/08 05:48:04;;;;;;;0.00;0.00;;;;;;;;;;5042912;28;20021;-76
2022/04/08 05:50:30;;;;;;;0.00;0.00;;;;;;;;;;5025076;28;20076;-77
2022/04/08 05:52:57;;;;;;;0.00;0.00;;;;;;;;;;5024648;28;20025;-76
2022/04/08 05:55:23;;;;;;;0.00;0.00;;;;;;;;;;5042700;28;20193;-74
2022/04/08 05:57:49;;;;;;;0.00;0.00;;;;;;;;;;5028583;28;20040;-73
2022/04/08 06:00:16;;;;;;;0.10;0.10;;;;;;;;;;5044434;28;20197;-70
2022/04/08 06:02:43;;;;;;;0.00;0.00;;;;;;;;;;5059604;28;20057;-71
2022/04/08 06:05:09;;;;;;;0.00;0.00;;;;;;;;;;5044011;28;20321;-76
2022/04/08 06:07:35;;;;;;;0.52;0.52;;;;;;;;;;5035382;28;20151;-77
2022/04/08 06:10:02;;;;;;;0.00;0.00;;;;;;;;;;5038954;28;20013;-75
2022/04/08 06:12:28;;;;;;;0.00;0.00;;;;;;;;;;5040048;28;20031;-75
2022/04/08 06:14:55;;;;;;;0.00;0.00;;;;;;;;;;5042022;28;20064;-77
2022/04/08 06:17:21;;;;;;;0.00;0.00;;;;;;;;;;5040161;28;20105;-76
2022/04/08 06:19:49;;;;;;;0.00;0.00;;;;;;;;;;5035181;28;20014;-76
2022/04/08 06:22:15;;;;;;;0.00;0.00;;;;;;;;;;5042589;28;20227;-76
2022/04/08 06:24:41;;;;;;;0.00;0.00;;;;;;;;;;5040131;28;20092;-75
2022/04/08 06:27:07;;;;;;;0.00;0.00;;;;;;;;;;5029763;28;20049;-77
2022/04/08 06:29:34;;;;;;;0.00;0.00;;;;;;;;;;5018705;28;20021;-72
2022/04/08 06:32:00;;;;;;;0.10;0.10;;;;;;;;;;5023459;28;20052;-75
2022/04/08 06:34:26;;;;;;;0.00;0.00;;;;;;;;;;5006072;28;20013;-77
2022/04/08 06:36:52;;;;;;;0.00;0.00;;;;;;;;;;5005635;28;20038;-76
2022/04/08 06:39:18;;;;;;;0.00;0.00;;;;;;;;;;5020163;28;20038;-74
2022/04/08 06:41:44;;;;;;;0.00;0.00;;;;;;;;;;5018508;28;20060;-74
2022/04/08 06:44:10;;;;;;;0.00;0.00;;;;;;;;;;5019980;28;20042;-75
2022/04/08 06:46:37;;;;;;;0.00;0.00;;;;;;;;;;5022014;28;20368;-78
2022/04/08 06:49:03;;;;;;;0.00;0.00;;;;;;;;;;5020654;28;20037;-76
2022/04/08 06:51:32;;;;;;;0.00;0.00;;;;;;;;;;5002333;28;20013;-77
2022/04/08 06:53:58;;;;;;;0.00;0.00;;;;;;;;;;5004740;28;20018;-75
2022/04/08 06:56:24;;;;;;;0.00;0.00;;;;;;;;;;5005419;28;20014;-76
2022/04/08 06:58:50;;;;;;;0.00;0.00;;;;;;;;;;5004010;28;20030;-76
2022/04/08 07:01:16;;;;;;;0.00;0.00;;;;;;;;;;5001264;28;20025;-77
2022/04/08 07:03:42;;;;;;;0.00;0.00;;;;;;;;;;5017324;28;20022;-75
2022/04/08 07:06:08;;;;;;;0.00;0.00;;;;;;;;;;5023162;28;20089;-76
2022/04/08 07:08:34;;;;;;;0.00;0.00;;;;;;;;;;5005558;28;20093;-75
2022/04/08 07:11:00;;;;;;;0.00;0.00;;;;;;;;;;5004145;28;20101;-76
2022/04/08 07:13:26;;;;;;;0.00;0.00;;;;;;;;;;4999445;28;20305;-75
2022/04/08 07:15:52;;;;;;;0.00;0.00;;;;;;;;;;5022100;28;20029;-75
2022/04/08 07:18:19;;;;;;;0.00;0.00;;;;;;;;;;5004874;28;20029;-74
2022/04/08 07:20:45;;;;;;;0.00;0.00;;;;;;;;;;5021943;28;20018;-76
2022/04/08 07:23:11;;;;;;;0.00;0.00;;;;;;;;;;4991242;28;20041;-76
2022/04/08 07:25:38;;;;;;;0.00;0.00;;;;;;;;;;5002595;28;20064;-73
2022/04/08 07:28:04;;;;;;;0.00;0.00;;;;;;;;;;5042946;28;20017;-76
2022/04/08 07:30:30;;;;;;;0.00;0.00;;;;;;;;;;5039238;28;20013;-76
2022/04/08 07:32:56;;;;;;;0.00;0.00;;;;;;;;;;5020305;28;20025;-75
2022/04/08 07:35:25;;;;;;;0.00;0.00;;;;;;;;;;5019884;28;20026;-75
2022/04/08 07:37:51;;;;;;;0.20;0.20;;;;;;;;;;5020856;28;20032;-73
2022/04/08 07:40:18;;;;;;;0.00;0.00;;;;;;;;;;5042474;28;20013;-79
2022/04/08 07:42:44;;;;;;;0.00;0.00;;;;;;;;;;5040639;28;20017;-78
2022/04/08 07:45:10;;;;;;;0.00;0.00;;;;;;;;;;5038776;28;20047;-77
2022/04/08 07:47:36;;;;;;;0.00;0.00;;;;;;;;;;5041045;28;20064;-71
2022/04/08 07:50:09;;;;;;;0.00;0.00;;;;;;;;;;5024171;28;20010;-76
2022/04/08 07:52:35;;;;;;;0.00;0.00;;;;;;;;;;5021014;28;20088;-76
2022/04/08 07:55:02;;;;;;;0.00;0.00;;;;;;;;;;5038159;28;20076;-73
2022/04/08 07:57:28;;;;;;;0.00;0.00;;;;;;;;;;5038298;28;20021;-73
2022/04/08 07:59:54;;;;;;;0.00;0.00;;;;;;;;;;5023621;28;20025;-75
2022/04/08 08:02:21;;;;;;;0.00;0.00;;;;;;;;;;5020884;28;20036;-74
2022/04/08 08:04:47;;;;;;;0.00;0.00;;;;;;;;;;5038828;28;20028;-76
2022/04/08 08:07:13;;;;;;;0.00;0.00;;;;;;;;;;5017970;28;20021;-73
2022/04/08 08:09:39;;;;;;;0.00;0.00;;;;;;;;;;5040078;28;20020;-73
2022/04/08 08:12:05;;;;;;;0.00;0.00;;;;;;;;;;5023565;28;20055;-74
2022/04/08 08:14:31;;;;;;;0.00;0.00;;;;;;;;;;5038661;28;20028;-75
2022/04/08 08:16:58;;;;;;;0.00;0.00;;;;;;;;;;5019620;28;20021;-72
2022/04/08 08:19:26;;;;;;;0.00;0.00;;;;;;;;;;5017229;28;20052;-73
2022/04/08 08:21:52;;;;;;;0.00;0.00;;;;;;;;;;5023227;28;20064;-76
2022/04/08 08:24:18;;;;;;;0.17;0.10;;;;;;;;;;5039443;28;20021;-71
2022/04/08 08:26:44;;;;;;;0.10;0.00;;;;;;;;;;5028780;28;20333;-74
2022/04/08 08:29:10;;;;;;;0.00;0.00;;;;;;;;;;4997324;28;20032;-74
2022/04/08 08:31:36;;;;;;;0.00;0.00;;;;;;;;;;5020054;28;20021;-73
2022/04/08 08:34:03;;;;;;;0.00;0.00;;;;;;;;;;4988068;28;20096;-74
2022/04/08 08:36:29;;;;;;;0.00;0.00;;;;;;;;;;4998577;28;20015;-73
2022/04/08 08:38:56;;;;;;;0.00;0.00;;;;;;;;;;5017011;28;20025;-73
2022/04/08 08:41:23;;;;;;;0.00;0.00;;;;;;;;;;5018873;28;20009;-73
2022/04/08 08:43:49;;;;;;;0.00;0.00;;;;;;;;;;5021417;28;20018;-72
2022/04/08 08:46:16;;;;;;;0.00;0.00;;;;;;;;;;5018390;28;20011;-73
2022/04/08 08:48:44;;;;;;;0.00;0.00;;;;;;;;;;5003781;28;20124;-72
2022/04/08 08:51:11;;;;;;;0.00;0.00;;;;;;;;;;5016678;28;20033;-71
2022/04/08 08:53:38;;;;;;;0.00;0.00;;;;;;;;;;5021433;28;20021;-73
2022/04/08 08:56:06;;;;;;;0.00;0.00;;;;;;;;;;5001668;28;20037;-72
2022/04/08 08:58:34;;;;;;;0.35;0.15;;;;;;;;;;5002857;28;20321;-73
2022/04/08 09:01:01;;;;;;;0.00;0.00;;;;;;;;;;4999598;28;20045;-75
2022/04/08 09:03:29;;;;;;;0.00;0.00;;;;;;;;;;5021792;28;20021;-74
2022/04/08 09:05:56;;;;;;;0.25;0.00;;;;;;;;;;5017163;28;20017;-73
2022/04/08 09:08:22;;;;;;;0.40;0.20;;;;;;;;;;5001723;28;20033;-74
2022/04/08 09:10:49;;;;;;;0.00;0.00;;;;;;;;;;5003546;28;20017;-74
2022/04/08 09:13:22;;;;;;;0.00;0.00;;;;;;;;;;5011893;28;20289;-73
2022/04/08 09:15:55;;;;;;;0.00;0.00;;;;;;;;;;5020804;28;20025;-74
2022/04/08 09:18:21;;;;;;;0.00;0.00;;;;;;;;;;5016025;28;20089;-74
2022/04/08 09:20:49;;;;;;;0.00;0.00;;;;;;;;;;5021528;28;20055;-74
2022/04/08 09:23:16;;;;;;;0.00;0.00;;;;;;;;;;5016879;28;20014;-73
2022/04/08 09:25:42;;;;;;;0.00;0.00;;;;;;;;;;5023431;28;20301;-72
2022/04/08 09:28:15;;;;;;;0.00;0.00;;;;;;;;;;5024801;28;20054;-74
2022/04/08 09:30:42;;;;;;;0.90;0.10;;;;;;;;;;5022631;28;20020;-73
2022/04/08 09:33:12;;;;;;;0.00;0.00;;;;;;;;;;5004947;28;20010;-76
2022/04/08 09:35:41;;;;;;;0.00;0.00;;;;;;;;;;4995531;28;20041;-74
2022/04/08 09:38:07;;;;;;;0.00;0.00;;;;;;;;;;5022163;28;20175;-73
2022/04/08 09:40:42;;;;;;;0.00;0.00;;;;;;;;;;5024105;28;20026;-71
2022/04/08 09:43:09;;;;;;;0.00;0.00;;;;;;;;;;5007286;28;20044;-75
2022/04/08 09:45:37;;;;;;;0.00;0.00;;;;;;;;;;5022140;28;20040;-73
2022/04/08 09:48:03;;;;;;;0.00;0.00;;;;;;;;;;4999679;28;20061;-74
2022/04/08 09:50:30;;;;;;;0.00;0.00;;;;;;;;;;5022842;28;20014;-73
2022/04/08 09:52:56;;;;;;;0.00;0.00;;;;;;;;;;5003452;28;20224;-74
2022/04/08 09:55:23;;;;;;;0.00;0.00;;;;;;;;;;5003825;28;20093;-73
2022/04/08 09:57:56;;;;;;;0.00;0.00;;;;;;;;;;5001717;28;20343;-75
2022/04/08 10:00:23;;;;;;;0.00;0.00;;;;;;;;;;4999889;28;20022;-74
2022/04/08 10:02:51;;;;;;;0.00;0.00;;;;;;;;;;5000889;28;20022;-73
2022/04/08 10:05:17;;;;;;;;;;;;;;;;;;5021821;28;20010;-74
2022/04/08 10:07:46;;;;;;;0.00;0.00;;;;;;;;;;5019143;28;20189;-71
2022/04/08 10:10:12;;;;;;;;;;;;;;;;;;5000467;28;20014;-74
2022/04/08 10:12:41;;;;;;;0.00;0.00;;;;;;;;;;5015501;28;19912;-74
2022/04/08 10:15:27;;;;;;;0.00;0.00;;;;;;;;;;5024368;28;20052;-74
2022/04/08 10:18:00;;;;;;;0.52;0.52;;;;;;;;;;5017308;28;20109;-74
2022/04/08 10:20:28;;;;;;;0.00;0.00;;;;;;;;;;5006683;28;20014;-75
2022/04/08 10:23:11;;;;;;;0.00;0.00;;;;;;;;;;5021327;28;20045;-72
2022/04/08 10:25:38;;;;;;;0.00;0.00;;;;;;;;;;5023861;28;20018;-73
2022/04/08 10:28:04;;;;;;;0.00;0.00;;;;;;;;;;5001539;28;20189;-74
2022/04/08 10:30:33;;;;;;;0.08;0.00;;;;;;;;;;5024020;28;20281;-73
2022/04/08 10:32:59;;;;;;;;;;;;;;;;;;5018641;28;20073;-73
2022/04/08 10:35:25;;;;;;;0.00;0.00;;;;;;;;;;5006768;28;19932;-73
2022/04/08 10:37:55;;;;;;;0.00;0.00;;;;;;;;;;5022759;28;20025;-69
2022/04/08 10:40:21;;;;;;;0.00;0.00;;;;;;;;;;5019525;28;20034;-73
2022/04/08 10:43:01;;;;;;;0.00;0.00;;;;;;;;;;5005327;28;20017;-73
2022/04/08 10:45:27;;;;;;;0.00;0.00;;;;;;;;;;5024016;28;20301;-72
2022/04/08 10:47:53;;;;;;;0.00;0.00;;;;;;;;;;5022242;28;20259;-75
2022/04/08 10:50:26;;;;;;;0.00;0.00;;;;;;;;;;5011867;28;20018;-75
2022/04/08 10:53:03;;;;;;;0.00;0.00;;;;;;;;;;5009023;28;20017;-76
2022/04/08 10:55:29;;;;;;;0.00;0.00;;;;;;;;;;5006409;28;20013;-76
2022/04/08 10:57:57;;;;;;;0.00;0.00;;;;;;;;;;5005355;28;20092;-76
2022/04/08 11:00:24;;;;;;;0.00;0.00;;;;;;;;;;5005385;28;20033;-75
2022/04/08 11:02:53;;;;;;;0.00;0.00;;;;;;;;;;5022831;28;20029;-76
2022/04/08 11:05:20;;;;;;;0.00;0.00;;;;;;;;;;5023916;28;20099;-76
2022/04/08 11:07:48;;;;;;;0.00;0.00;;;;;;;;;;5023162;28;20072;-75
2022/04/08 11:10:15;;;;;;;0.00;0.00;;;;;;;;;;5006189;28;20022;-76
2022/04/08 11:12:45;;;;;;;0.00;0.00;;;;;;;;;;5004610;28;20018;-76
2022/04/08 11:15:15;;;;;;;0.00;0.00;;;;;;;;;;5019158;28;20017;-76
2022/04/08 11:17:41;;;;;;;0.00;0.00;;;;;;;;;;5005707;28;20030;-76
2022/04/08 11:20:11;;;;;;;0.00;0.00;;;;;;;;;;5021980;28;20169;-75
2022/04/08 11:22:41;;;;;;;0.00;0.00;;;;;;;;;;4994201;28;20015;-76
2022/04/08 11:25:08;;;;;;;0.00;0.00;;;;;;;;;;4991441;28;20302;-76
2022/04/08 11:27:34;;;;;;;0.00;0.00;;;;;;;;;;5003425;28;20050;-76
2022/04/08 11:30:00;;;;;;;0.00;0.00;;;;;;;;;;4985286;28;20297;-76
2022/04/08 11:32:32;;;;;;;0.00;0.00;;;;;;;;;;4986162;28;20034;-76
2022/04/08 11:34:58;;;;;;;0.00;0.00;;;;;;;;;;5007779;28;20018;-76
2022/04/08 11:37:28;;;;;;;0.00;0.00;;;;;;;;;;5023158;28;20258;-76
2022/04/08 11:40:00;;;;;;;0.00;0.00;;;;;;;;;;5022545;28;20077;-76
2022/04/08 11:42:27;;;;;;;0.00;0.00;;;;;;;;;;5023469;28;20059;-76
2022/04/08 11:44:53;;;;;;;0.00;0.00;;;;;;;;;;5020678;28;20036;-75
2022/04/08 11:47:30;;;;;;;0.00;0.00;;;;;;;;;;5003766;28;20029;-76
2022/04/08 11:50:04;;;;;;;0.00;0.00;;;;;;;;;;4985809;28;20049;-76
2022/04/08 11:52:30;;;;;;;0.00;0.00;;;;;;;;;;5003490;28;20029;-76
2022/04/08 11:55:03;;;;;;;0.00;0.00;;;;;;;;;;4994341;28;20021;-76
2022/04/08 11:57:29;;;;;;;0.00;0.00;;;;;;;;;;5005869;28;20021;-77
2022/04/08 11:59:56;;;;;;;0.00;0.00;;;;;;;;;;5007163;28;20033;-76
2022/04/08 12:02:22;;;;;;;0.00;0.00;;;;;;;;;;5004836;28;20017;-76
2022/04/08 12:04:50;;;;;;;0.00;0.00;;;;;;;;;;5020011;28;20060;-76
2022/04/08 12:07:23;;;;;;;0.00;0.00;;;;;;;;;;5010375;28;20014;-77
2022/04/08 12:09:50;;;;;;;0.00;0.00;;;;;;;;;;4985060;28;20030;-75
2022/04/08 12:12:22;;;;;;;0.00;0.00;;;;;;;;;;5003152;28;20006;-76
2022/04/08 12:14:48;;;;;;;0.00;0.00;;;;;;;;;;4985287;28;20061;-76
2022/04/08 12:17:14;;;;;;;0.00;0.00;;;;;;;;;;5007003;28;20019;-76
2022/04/08 12:19:41;;;;;;;0.00;0.00;;;;;;;;;;5008506;28;20031;-75
2022/04/08 12:22:14;;;;;;;0.00;0.00;;;;;;;;;;5002442;28;20100;-76
2022/04/08 12:24:41;;;;;;;0.00;0.00;;;;;;;;;;4985720;28;20042;-76
2022/04/08 12:27:23;;;;;;;0.00;0.00;;;;;;;;;;5020960;28;20428;-75
2022/04/08 12:30:00;;;;;;;0.00;0.00;;;;;;;;;;5021910;28;20017;-76
2022/04/08 12:32:33;;;;;;;0.00;0.00;;;;;;;;;;5040524;28;20037;-76
2022/04/08 12:34:59;;;;;;;0.00;0.00;;;;;;;;;;5042103;28;20033;-76
2022/04/08 12:37:25;;;;;;;0.00;0.00;;;;;;;;;;5041532;28;20044;-76
2022/04/08 12:39:51;;;;;;;0.00;0.00;;;;;;;;;;5040914;28;20029;-75
2022/04/08 12:42:17;;;;;;;0.00;0.00;;;;;;;;;;5042214;28;20024;-77
2022/04/08 12:44:43;;;;;;;0.00;0.00;;;;;;;;;;5042431;28;20089;-77
2022/04/08 12:47:10;;;;;;;0.00;0.00;;;;;;;;;;5041768;28;20080;-76
2022/04/08 12:49:36;;;;;;;0.00;0.00;;;;;;;;;;5037331;28;20305;-75
2022/04/08 12:52:03;;;;;;;0.00;0.00;;;;;;;;;;5023874;28;20032;-76
2022/04/08 12:54:29;;;;;;;0.00;0.00;;;;;;;;;;5024530;28;20013;-77
2022/04/08 12:56:55;;;;;;;0.00;0.00;;;;;;;;;;5027722;28;20021;-76
2022/04/08 12:59:21;;;;;;;0.00;0.00;;;;;;;;;;5043039;28;20177;-76
2022/04/08 13:01:47;;;;;;;0.00;0.00;;;;;;;;;;5025753;28;20029;-76
2022/04/08 13:04:13;;;;;;;0.00;0.00;;;;;;;;;;5007903;28;20201;-76
2022/04/08 13:06:39;;;;;;;0.00;0.00;;;;;;;;;;5044347;28;20044;-76
2022/04/08 13:09:05;;;;;;;0.30;0.15;;;;;;;;;;5044775;28;20029;-76
2022/04/08 13:11:33;;;;;;;0.00;0.00;;;;;;;;;;5040599;28;20036;-77
2022/04/08 13:13:59;;;;;;;0.00;0.00;;;;;;;;;;5026928;28;20013;-76
2022/04/08 13:16:25;;;;;;;0.00;0.00;;;;;;;;;;5027885;28;20212;-77
2022/04/08 13:18:51;;;;;;;0.00;0.00;;;;;;;;;;5044654;28;20032;-75
2022/04/08 13:21:18;;;;;;;0.00;0.00;;;;;;;;;;5034847;28;20080;-76
2022/04/08 13:23:44;;;;;;;0.00;0.00;;;;;;;;;;5027762;28;20205;-76
2022/04/08 13:26:10;;;;;;;0.00;0.00;;;;;;;;;;5029486;28;20390;-76
2022/04/08 13:28:36;;;;;;;0.00;0.00;;;;;;;;;;5045607;28;20112;-76
2022/04/08 13:31:03;;;;;;;0.00;0.00;;;;;;;;;;5036694;28;20064;-76
2022/04/08 13:33:29;;;;;;;0.00;0.00;;;;;;;;;;5031209;28;20014;-76
2022/04/08 13:35:56;;;;;;;0.00;0.00;;;;;;;;;;5035008;28;20029;-76
2022/04/08 13:38:25;;;;;;;0.00;0.00;;;;;;;;;;5060484;28;20093;-75
2022/04/08 13:40:52;;;;;;;0.00;0.00;;;;;;;;;;5060017;28;20028;-71
2022/04/08 13:43:18;;;;;;;0.00;0.00;;;;;;;;;;5043021;28;20013;-75
2022/04/08 13:45:44;;;;;;;0.00;0.00;;;;;;;;;;5044787;28;20080;-75
2022/04/08 13:48:10;;;;;;;0.00;0.00;;;;;;;;;;5043381;28;20092;-76
2022/04/08 13:50:36;;;;;;;0.00;0.00;;;;;;;;;;5044787;28;20021;-76
2022/04/08 13:53:02;;;;;;;0.00;0.00;;;;;;;;;;5041973;28;20088;-75
2022/04/08 13:55:28;;;;;;;0.57;0.28;;;;;;;;;;5040271;28;20313;-76
2022/04/08 13:57:54;;;;;;;0.00;0.00;;;;;;;;;;5042964;28;20041;-75
2022/04/08 14:00:20;;;;;;;0.00;0.00;;;;;;;;;;5043667;28;20022;-75
2022/04/08 14:02:46;;;;;;;0.00;0.00;;;;;;;;;;5043155;28;20017;-76
2022/04/08 14:05:13;;;;;;;0.00;0.00;;;;;;;;;;5026770;28;20186;-75
2022/04/08 14:07:39;;;;;;;0.00;0.00;;;;;;;;;;5028479;28;20009;-77
2022/04/08 14:10:05;;;;;;;0.00;0.00;;;;;;;;;;5044289;28;20083;-76
2022/04/08 14:12:32;;;;;;;0.00;0.00;;;;;;;;;;5043039;28;20032;-76
2022/04/08 14:14:58;;;;;;;0.00;0.00;;;;;;;;;;5027032;28;20040;-76
2022/04/08 14:17:24;;;;;;;0.00;0.00;;;;;;;;;;5042889;28;20201;-76
2022/04/08 14:19:50;;;;;;;0.00;0.00;;;;;;;;;;5043300;28;20068;-76
2022/04/08 14:22:16;;;;;;;0.00;0.00;;;;;;;;;;5042579;28;20020;-77
2022/04/08 14:24:42;;;;;;;0.00;0.00;;;;;;;;;;5028921;28;20107;-75
2022/04/08 14:27:08;;;;;;;0.00;0.00;;;;;;;;;;5022225;28;20436;-77
2022/04/08 14:29:34;;;;;;;0.00;0.00;;;;;;;;;;5024634;28;20026;-76
2022/04/08 14:32:00;;;;;;;0.00;0.00;;;;;;;;;;5023634;28;20117;-76
2022/04/08 14:34:26;;;;;;;0.00;0.00;;;;;;;;;;5003930;28;20022;-76
2022/04/08 14:36:53;;;;;;;0.00;0.00;;;;;;;;;;4987398;28;20014;-76
2022/04/08 14:39:19;;;;;;;0.00;0.00;;;;;;;;;;5004498;28;20030;-76
2022/04/08 14:41:45;;;;;;;0.00;0.00;;;;;;;;;;4987177;28;20018;-76